createdAt,value
2022-08-22T00:01:12.195Z,99.90
2022-08-22T00:02:49.790Z,99.90
2022-08-22T00:03:39.698Z,99.90
2022-08-22T00:06:32.702Z,99.90
2022-08-22T00:09:19.797Z,99.90
2022-08-22T00:13:03.054Z,99.90
2022-08-22T00:15:42.997Z,99.90
2022-08-22T00:18:33.986Z,99.90
2022-08-22T00:21:15.744Z,99.90
2022-08-22T00:24:03.097Z,99.90
2022-08-22T00:26:45.485Z,99.90
2022-08-22T00:29:43.502Z,99.90
2022-08-22T00:32:33.862Z,99.90
2022-08-22T00:35:22.362Z,99.90
2022-08-22T00:38:11.177Z,99.90
2022-08-22T00:40:46.599Z,99.90
2022-08-22T00:43:29.884Z,99.90
2022-08-22T00:46:20.708Z,99.90
2022-08-22T00:48:54.084Z,99.90
2022-08-22T00:52:01.147Z,99.90
2022-08-22T00:54:32.863Z,99.90
2022-08-22T00:57:32.573Z,99.90
2022-08-22T01:00:12.803Z,99.90
2022-08-22T01:03:06.328Z,99.90
2022-08-22T01:06:17.828Z,99.90
2022-08-22T01:09:10.136Z,99.90
2022-08-22T01:12:06.847Z,99.90
2022-08-22T01:14:52.701Z,99.90
2022-08-22T01:17:48.418Z,99.90
2022-08-22T01:20:35.363Z,99.90
2022-08-22T01:23:18.833Z,99.90
2022-08-22T01:25:50.881Z,99.90
2022-08-22T01:28:41.790Z,99.90
2022-08-22T01:31:47.737Z,99.90
2022-08-22T01:34:23.889Z,99.90
2022-08-22T02:09:32.388Z,99.90
2022-08-22T02:12:21.868Z,99.90
2022-08-22T02:15:14.206Z,99.90
2022-08-22T02:18:02.974Z,99.90
2022-08-22T02:20:55.580Z,99.90
2022-08-22T02:23:48.770Z,99.90
2022-08-22T02:26:33.278Z,99.90
2022-08-22T02:29:07.960Z,99.90
2022-08-22T02:31:57.723Z,99.90
2022-08-22T02:34:54.542Z,99.90
2022-08-22T02:37:34.480Z,99.90
2022-08-22T02:40:09.968Z,99.90
2022-08-22T02:42:56.182Z,99.90
2022-08-22T02:45:41.600Z,99.90
2022-08-22T02:48:10.113Z,99.90
2022-08-22T02:50:57.330Z,99.90
2022-08-22T02:53:41.736Z,99.90
2022-08-22T02:56:18.335Z,99.90
2022-08-22T02:59:15.053Z,99.90
2022-08-22T03:01:46.060Z,99.90
2022-08-22T03:04:46.912Z,99.90
2022-08-22T03:07:20.962Z,99.90
2022-08-22T03:10:07.167Z,99.90
2022-08-22T03:12:42.984Z,99.90
2022-08-22T03:15:49.542Z,99.90
2022-08-22T03:18:27.451Z,99.90
2022-08-22T03:24:43.920Z,99.90
2022-08-22T03:27:38.989Z,99.90
2022-08-22T03:30:44.070Z,99.90
2022-08-22T03:33:17.743Z,99.90
2022-08-22T03:35:48.361Z,99.90
2022-08-22T03:38:34.885Z,99.90
2022-08-22T03:41:31.172Z,99.90
2022-08-22T03:44:09.295Z,99.90
2022-08-22T03:46:58.571Z,99.90
2022-08-22T03:49:59.842Z,99.90
2022-08-22T03:53:18.995Z,99.90
2022-08-22T03:56:05.553Z,99.90
2022-08-22T03:59:09.891Z,99.90
2022-08-22T04:02:42.461Z,99.90
2022-08-22T04:05:09.510Z,99.90
2022-08-22T04:08:02.703Z,99.90
2022-08-22T04:10:51.839Z,99.90
2022-08-22T04:13:54.315Z,99.90
2022-08-22T04:17:01.072Z,99.90
2022-08-22T04:19:56.747Z,99.90
2022-08-22T04:22:49.712Z,99.90
2022-08-22T04:25:36.281Z,99.90
2022-08-22T04:28:33.089Z,99.90
2022-08-22T04:34:42.610Z,99.90
2022-08-22T04:37:26.168Z,99.90
2022-08-22T04:40:07.158Z,99.90
2022-08-22T04:42:40.493Z,99.90
2022-08-22T04:45:35.654Z,99.90
2022-08-22T04:48:15.968Z,99.90
2022-08-22T04:51:05.462Z,99.90
2022-08-22T04:54:00.223Z,99.90
2022-08-22T04:56:39.011Z,99.90
2022-08-22T04:59:12.357Z,99.90
2022-08-22T05:01:47.846Z,99.90
2022-08-22T05:04:17.446Z,99.90
2022-08-22T05:06:47.630Z,99.90
2022-08-22T05:09:17.946Z,99.90
2022-08-22T05:11:45.884Z,99.90
2022-08-22T05:14:17.025Z,99.90
2022-08-22T05:16:45.644Z,99.90
2022-08-22T05:19:26.210Z,99.90
2022-08-22T05:21:55.419Z,99.90
2022-08-22T05:24:39.937Z,99.90
2022-08-22T05:27:11.710Z,99.90
2022-08-22T05:29:40.279Z,99.90
2022-08-22T05:32:10.127Z,99.90
2022-08-22T05:34:39.301Z,99.90
2022-08-22T05:37:08.509Z,99.90
2022-08-22T05:39:35.426Z,99.90
2022-08-22T05:42:02.820Z,99.90
2022-08-22T05:44:34.340Z,99.90
2022-08-22T05:47:02.275Z,99.90
2022-08-22T05:49:38.883Z,99.90
2022-08-22T05:52:40.157Z,99.90
2022-08-22T05:55:31.965Z,99.90
2022-08-22T05:58:17.991Z,99.90
2022-08-22T06:00:47.163Z,99.90
2022-08-22T06:03:20.001Z,99.90
2022-08-22T06:05:48.770Z,99.90
2022-08-22T06:08:32.465Z,99.90
2022-08-22T06:11:00.397Z,99.90
2022-08-22T06:13:41.217Z,99.90
2022-08-22T06:16:11.838Z,99.90
2022-08-22T06:18:40.169Z,99.90
2022-08-22T06:21:10.193Z,99.90
2022-08-22T06:23:46.777Z,99.90
2022-08-22T06:26:20.740Z,99.90
2022-08-22T06:28:55.403Z,99.90
2022-08-22T06:31:34.263Z,99.90
2022-08-22T06:34:06.521Z,99.90
2022-08-22T06:36:34.740Z,99.90
2022-08-22T06:39:17.262Z,99.90
2022-08-22T06:41:47.617Z,99.90
2022-08-22T06:44:16.293Z,99.90
2022-08-22T06:46:43.677Z,99.90
2022-08-22T06:49:10.842Z,99.90
2022-08-22T06:51:38.408Z,99.90
2022-08-22T06:54:07.290Z,99.90
2022-08-22T06:56:40.622Z,99.90
2022-08-22T06:59:11.555Z,99.90
2022-08-22T07:02:17.399Z,99.90
2022-08-22T07:04:45.589Z,99.90
2022-08-22T07:07:15.070Z,99.90
2022-08-22T07:09:43.013Z,99.90
2022-08-22T07:12:28.733Z,99.90
2022-08-22T07:15:00.267Z,99.90
2022-08-22T07:17:30.224Z,99.90
2022-08-22T07:20:13.351Z,99.90
2022-08-22T07:22:40.217Z,99.90
2022-08-22T07:25:09.587Z,99.90
2022-08-22T07:27:57.739Z,99.90
2022-08-22T07:30:28.150Z,99.90
2022-08-22T07:33:25.694Z,99.90
2022-08-22T07:36:01.645Z,99.90
2022-08-22T07:38:42.976Z,99.90
2022-08-22T07:41:20.107Z,97.90
2022-08-22T07:44:00.260Z,96.60
2022-08-22T07:46:35.895Z,95.00
2022-08-22T07:49:16.584Z,94.80
2022-08-22T07:51:45.391Z,97.20
2022-08-22T07:54:14.405Z,96.80
2022-08-22T07:57:21.296Z,94.40
2022-08-22T07:59:52.878Z,93.40
2022-08-22T08:02:20.087Z,92.90
2022-08-22T08:04:49.281Z,91.10
2022-08-22T08:07:17.215Z,89.00
2022-08-22T08:09:48.708Z,86.60
2022-08-22T08:12:15.854Z,86.80
2022-08-22T08:14:44.441Z,83.80
2022-08-22T08:17:32.027Z,82.60
2022-08-22T08:20:00.152Z,80.60
2022-08-22T08:22:27.323Z,78.90
2022-08-22T08:24:56.296Z,79.90
2022-08-22T08:27:43.737Z,79.30
2022-08-22T08:30:16.867Z,77.90
2022-08-22T08:32:49.085Z,76.50
2022-08-22T08:35:25.438Z,74.20
2022-08-22T08:37:54.984Z,73.10
2022-08-22T08:40:31.982Z,72.80
2022-08-22T08:43:23.686Z,71.00
2022-08-22T08:46:11.530Z,70.70
2022-08-22T08:52:02.764Z,64.80
2022-08-22T08:54:37.554Z,64.80
2022-08-22T08:57:31.080Z,64.70
2022-08-22T09:00:14.438Z,64.40
2022-08-22T09:02:50.534Z,62.70
2022-08-22T09:05:43.539Z,63.00
2022-08-22T09:08:27.706Z,61.90
2022-08-22T09:11:14.272Z,61.80
2022-08-22T09:14:12.715Z,61.80
2022-08-22T09:21:03.862Z,61.00
2022-08-22T09:23:49.330Z,60.30
2022-08-22T09:26:51.017Z,59.60
2022-08-22T09:29:54.680Z,59.40
2022-08-22T09:32:34.643Z,59.40
2022-08-22T09:38:30.151Z,58.20
2022-08-22T09:40:15.704Z,58.70
2022-08-22T09:45:42.895Z,58.60
2022-08-22T09:51:49.347Z,57.60
2022-08-22T09:54:23.085Z,57.10
2022-08-22T09:57:28.176Z,57.20
2022-08-22T09:59:58.043Z,56.80
2022-08-22T10:03:01.560Z,57.40
2022-08-22T10:05:47.254Z,56.30
2022-08-22T10:08:26.122Z,56.30
2022-08-22T10:11:14.556Z,56.20
2022-08-22T10:14:01.714Z,55.80
2022-08-22T10:16:44.558Z,55.30
2022-08-22T10:19:23.739Z,56.00
2022-08-22T10:22:31.195Z,54.60
2022-08-22T10:25:20.038Z,55.10
2022-08-22T10:27:53.474Z,55.10
2022-08-22T10:31:18.672Z,55.10
2022-08-22T10:34:13.596Z,54.50
2022-08-22T10:36:59.471Z,54.30
2022-08-22T10:39:28.951Z,54.30
2022-08-22T10:42:16.981Z,53.90
2022-08-22T10:45:24.074Z,54.00
2022-08-22T10:48:30.761Z,53.00
2022-08-22T10:51:16.558Z,53.40
2022-08-22T10:53:57.524Z,53.50
2022-08-22T10:56:27.574Z,52.70
2022-08-22T10:59:16.687Z,53.10
2022-08-22T11:01:54.228Z,52.90
2022-08-22T11:04:28.765Z,53.60
2022-08-22T11:07:04.782Z,53.20
2022-08-22T11:09:40.238Z,53.50
2022-08-22T11:12:16.119Z,52.80
2022-08-22T11:15:03.264Z,53.50
2022-08-22T11:17:54.296Z,54.10
2022-08-22T11:21:02.864Z,54.90
2022-08-22T11:24:09.268Z,55.00
2022-08-22T11:26:53.362Z,54.20
2022-08-22T11:29:29.491Z,55.00
2022-08-22T11:32:08.536Z,54.70
2022-08-22T11:35:09.341Z,54.60
2022-08-22T11:38:22.023Z,54.80
2022-08-22T11:41:15.555Z,54.70
2022-08-22T11:43:50.193Z,55.20
2022-08-22T11:46:31.876Z,54.50
2022-08-22T11:49:18.922Z,54.00
2022-08-22T11:51:57.447Z,55.10
2022-08-22T11:54:53.515Z,54.40
2022-08-22T11:57:37.528Z,54.10
2022-08-22T12:00:24.311Z,53.50
2022-08-22T12:02:54.892Z,54.40
2022-08-22T12:05:29.786Z,54.20
2022-08-22T12:08:14.043Z,53.70
2022-08-22T12:10:49.488Z,53.10
2022-08-22T12:13:34.892Z,52.90
2022-08-22T12:16:16.879Z,52.80
2022-08-22T12:19:14.139Z,52.00
2022-08-22T12:22:12.822Z,50.80
2022-08-22T12:25:03.866Z,50.40
2022-08-22T12:27:54.070Z,49.70
2022-08-22T12:30:28.562Z,49.10
2022-08-22T12:33:33.012Z,48.70
2022-08-22T12:36:27.988Z,48.20
2022-08-22T12:39:32.996Z,48.80
2022-08-22T12:42:49.090Z,48.10
2022-08-22T12:45:20.544Z,46.50
2022-08-22T12:47:55.549Z,44.80
2022-08-22T12:50:48.953Z,45.40
2022-08-22T12:53:28.416Z,44.60
2022-08-22T12:56:10.334Z,44.00
2022-08-22T12:58:51.198Z,43.70
2022-08-22T13:01:18.866Z,44.00
2022-08-22T13:04:02.655Z,44.30
2022-08-22T13:06:48.799Z,43.80
2022-08-22T13:09:22.777Z,44.40
2022-08-22T13:11:58.266Z,42.80
2022-08-22T13:14:26.534Z,43.80
2022-08-22T13:16:59.248Z,44.10
2022-08-22T13:19:33.091Z,43.40
2022-08-22T13:22:04.173Z,41.30
2022-08-22T13:24:41.753Z,42.10
2022-08-22T13:27:50.542Z,42.40
2022-08-22T13:30:39.226Z,41.80
2022-08-22T13:33:14.466Z,41.60
2022-08-22T13:35:52.311Z,40.70
2022-08-22T13:38:26.455Z,41.40
2022-08-22T13:40:54.992Z,42.20
2022-08-22T13:43:30.892Z,40.40
2022-08-22T13:46:02.088Z,40.40
2022-08-22T13:48:50.504Z,40.40
2022-08-22T13:51:54.892Z,40.00
2022-08-22T13:54:40.556Z,39.50
2022-08-22T13:57:28.844Z,39.30
2022-08-22T14:00:33.923Z,38.20
2022-08-22T14:03:09.523Z,38.40
2022-08-22T14:05:54.272Z,39.10
2022-08-22T14:08:45.859Z,39.00
2022-08-22T14:11:42.354Z,38.70
2022-08-22T14:14:11.257Z,37.40
2022-08-22T14:16:59.235Z,38.00
2022-08-22T14:19:29.712Z,38.50
2022-08-22T14:22:05.233Z,38.70
2022-08-22T14:24:44.945Z,36.30
2022-08-22T14:27:26.984Z,36.60
2022-08-22T14:30:06.273Z,35.80
2022-08-22T14:33:01.180Z,36.80
2022-08-22T14:35:35.071Z,36.70
2022-08-22T14:38:29.727Z,35.90
2022-08-22T14:41:11.283Z,36.00
2022-08-22T14:43:57.362Z,34.40
2022-08-22T14:46:32.466Z,34.50
2022-08-22T14:49:16.226Z,33.70
2022-08-22T14:51:55.215Z,32.60
2022-08-22T14:54:23.233Z,34.40
2022-08-22T14:56:57.065Z,34.50
2022-08-22T14:59:50.211Z,34.00
2022-08-22T15:02:27.961Z,34.10
2022-08-22T15:04:59.109Z,33.90
2022-08-22T15:07:30.901Z,33.70
2022-08-22T15:10:11.845Z,34.10
2022-08-22T15:12:45.257Z,33.70
2022-08-22T15:15:53.616Z,33.70
2022-08-22T15:18:27.888Z,32.80
2022-08-22T15:21:25.465Z,33.10
2022-08-22T15:24:02.502Z,31.80
2022-08-22T15:26:38.779Z,30.90
2022-08-22T15:29:08.983Z,32.10
2022-08-22T15:31:37.908Z,31.50
2022-08-22T15:34:23.833Z,31.50
2022-08-22T15:37:17.049Z,31.70
2022-08-22T15:40:08.182Z,31.70
2022-08-22T15:42:47.679Z,32.00
2022-08-22T15:45:36.219Z,33.90
2022-08-22T15:48:38.124Z,31.80
2022-08-22T15:51:10.479Z,32.50
2022-08-22T15:53:44.801Z,31.80
2022-08-22T15:56:13.285Z,32.10
2022-08-22T16:44:37.244Z,35.40
2022-08-22T16:47:12.101Z,39.90
2022-08-22T16:49:51.515Z,40.80
2022-08-22T16:52:24.702Z,41.50
2022-08-22T16:55:04.368Z,42.70
2022-08-22T16:58:06.160Z,44.20
2022-08-22T17:00:36.506Z,46.30
2022-08-22T17:03:27.560Z,47.90
2022-08-22T17:06:04.825Z,50.30
2022-08-22T17:08:53.889Z,51.90
2022-08-22T17:11:34.203Z,52.60
2022-08-22T17:14:35.568Z,53.00
2022-08-22T17:17:16.549Z,52.30
2022-08-22T17:20:12.087Z,52.00
2022-08-22T17:22:54.299Z,50.70
2022-08-22T17:25:51.052Z,45.50
2022-08-22T17:28:42.166Z,44.60
2022-08-22T17:31:15.048Z,44.40
2022-08-22T17:33:48.838Z,44.40
2022-08-22T17:36:26.493Z,45.40
2022-08-22T17:39:25.579Z,46.30
2022-08-22T17:42:20.785Z,44.80
2022-08-22T17:45:01.052Z,48.70
2022-08-22T17:47:43.947Z,53.10
2022-08-22T17:50:30.599Z,53.30
2022-08-22T17:53:02.279Z,55.50
2022-08-22T17:55:32.694Z,57.50
2022-08-22T17:58:13.178Z,58.20
2022-08-22T18:01:13.596Z,59.60
2022-08-22T18:03:47.347Z,60.20
2022-08-22T18:06:26.739Z,61.80
2022-08-22T18:09:15.439Z,63.30
2022-08-22T18:12:16.833Z,63.50
2022-08-22T18:14:51.381Z,59.80
2022-08-22T18:17:20.791Z,60.80
2022-08-22T18:20:09.936Z,63.00
2022-08-22T18:22:51.013Z,65.30
2022-08-22T18:25:17.936Z,66.90
2022-08-22T18:27:57.724Z,68.70
2022-08-22T18:30:26.853Z,69.00
2022-08-22T18:32:58.101Z,69.90
2022-08-22T18:35:43.567Z,70.80
2022-08-22T18:38:45.918Z,72.70
2022-08-22T18:41:39.119Z,73.30
2022-08-22T18:44:11.179Z,75.40
2022-08-22T18:46:38.043Z,77.00
2022-08-22T18:49:20.811Z,78.10
2022-08-22T18:52:09.258Z,79.30
2022-08-22T18:54:57.965Z,80.50
2022-08-22T18:57:43.157Z,81.40
2022-08-22T19:00:36.214Z,82.60
2022-08-22T19:03:21.461Z,84.40
2022-08-22T19:06:16.409Z,86.20
2022-08-22T19:09:13.782Z,88.90
2022-08-22T19:11:58.425Z,90.10
2022-08-22T19:15:00.758Z,91.80
2022-08-22T19:18:12.313Z,92.10
2022-08-22T19:20:58.522Z,93.00
2022-08-22T19:23:40.486Z,94.50
2022-08-22T19:26:26.020Z,94.10
2022-08-22T19:29:26.849Z,94.90
2022-08-22T19:31:57.879Z,95.50
2022-08-22T19:34:30.691Z,95.60
2022-08-22T19:37:32.232Z,96.10
2022-08-22T19:40:09.994Z,96.80
2022-08-22T19:42:41.582Z,97.00
2022-08-22T19:45:25.730Z,98.40
2022-08-22T19:47:59.148Z,98.10
2022-08-22T19:50:30.897Z,98.70
2022-08-22T19:52:58.025Z,99.50
2022-08-22T19:55:31.199Z,99.90
2022-08-22T19:58:31.875Z,99.90
2022-08-22T20:01:11.687Z,99.90
2022-08-22T20:03:53.321Z,99.90
2022-08-22T20:06:44.863Z,99.90
2022-08-22T20:09:24.728Z,99.90
2022-08-22T20:12:15.095Z,99.90
2022-08-22T20:14:43.479Z,99.90
2022-08-22T20:17:26.581Z,99.90
2022-08-22T20:20:18.148Z,99.90
2022-08-22T20:22:49.393Z,99.90
2022-08-22T20:25:42.842Z,99.90
2022-08-22T20:28:26.500Z,99.90
2022-08-22T20:31:00.402Z,99.90
2022-08-22T20:33:33.693Z,99.90
2022-08-22T20:36:24.225Z,99.90
2022-08-22T20:38:56.204Z,99.90
2022-08-22T20:41:24.391Z,99.90
2022-08-22T20:44:01.271Z,99.90
2022-08-22T20:46:38.800Z,99.90
2022-08-22T20:49:18.725Z,99.90
2022-08-22T20:52:02.235Z,99.90
2022-08-22T20:54:31.329Z,99.90
2022-08-22T20:57:17.106Z,99.90
2022-08-22T20:59:55.649Z,99.90
2022-08-22T21:02:38.293Z,99.90
2022-08-22T21:05:06.522Z,99.90
2022-08-22T21:07:35.889Z,99.90
2022-08-22T21:10:28.237Z,99.90
2022-08-22T21:13:20.307Z,99.90
2022-08-22T21:15:49.301Z,99.90
2022-08-22T21:19:06.893Z,99.90
2022-08-22T21:21:34.447Z,99.90
2022-08-22T21:24:03.082Z,99.90
2022-08-22T21:26:38.105Z,99.90
2022-08-22T21:29:07.042Z,99.90
2022-08-22T21:31:46.155Z,99.90
2022-08-22T21:34:19.053Z,99.90
2022-08-22T21:36:45.864Z,99.90
2022-08-22T21:39:25.343Z,99.90
2022-08-22T21:42:10.338Z,99.90
2022-08-22T21:44:41.825Z,99.90
2022-08-22T21:47:30.483Z,99.90
2022-08-22T21:50:13.445Z,99.90
2022-08-22T21:53:03.050Z,99.90
2022-08-22T21:55:36.781Z,99.90
2022-08-22T21:58:06.511Z,99.90
2022-08-22T22:00:49.814Z,99.90
2022-08-22T22:03:18.361Z,99.90
2022-08-22T22:05:45.343Z,99.90
2022-08-22T22:08:12.304Z,99.90
2022-08-22T22:10:40.768Z,99.90
2022-08-22T22:13:07.842Z,99.90
2022-08-22T22:15:44.205Z,99.90
2022-08-22T22:18:12.677Z,99.90
2022-08-22T22:20:39.853Z,99.90
2022-08-22T22:23:06.981Z,99.90
2022-08-22T22:25:41.389Z,99.90
2022-08-22T22:28:17.360Z,99.90
2022-08-22T22:30:44.970Z,99.90
2022-08-22T22:33:12.304Z,99.90
2022-08-22T22:35:39.660Z,99.90
2022-08-22T22:38:07.024Z,99.90
2022-08-22T22:40:33.952Z,99.90
2022-08-22T22:43:00.982Z,99.90
2022-08-22T22:45:27.898Z,99.90
2022-08-22T22:47:54.804Z,99.90
2022-08-22T22:50:21.744Z,99.90
2022-08-22T22:52:48.590Z,99.90
2022-08-22T22:55:24.283Z,99.90
2022-08-22T22:57:58.466Z,99.90
2022-08-22T23:00:30.628Z,99.90
2022-08-22T23:03:01.909Z,99.90
2022-08-22T23:05:31.857Z,99.90
2022-08-22T23:07:58.976Z,99.90
2022-08-22T23:10:27.142Z,99.90
2022-08-22T23:12:54.067Z,99.90
2022-08-22T23:15:21.297Z,99.90
2022-08-22T23:17:48.432Z,99.90
2022-08-22T23:20:15.585Z,99.90
2022-08-22T23:22:45.055Z,99.90
2022-08-22T23:25:11.907Z,99.90
2022-08-22T23:27:38.749Z,99.90
2022-08-22T23:30:09.124Z,99.90
2022-08-22T23:32:36.999Z,99.90
2022-08-22T23:35:04.514Z,99.90
2022-08-22T23:37:33.928Z,99.90
2022-08-22T23:40:00.970Z,99.90
2022-08-22T23:42:29.396Z,99.90
2022-08-22T23:44:56.415Z,99.90
2022-08-22T23:47:23.298Z,99.90
2022-08-22T23:49:50.171Z,99.90
2022-08-22T23:52:17.190Z,99.90
2022-08-22T23:54:44.142Z,99.90
2022-08-22T23:57:11.628Z,99.90
2022-08-22T23:59:42.339Z,99.90
